Time;durP1;ratioP1;P1;durP2;ratioP2;P2;SDS_P1;SDS_P2;PMS_P1;PMS_P2;Temp;Humidity;BMP_temperature;BMP_pressure;BME280_temperature;BME280_humidity;BME280_pressure;Samples;Min_cycle;Max_cycle;Signal;HPM_P1;HPM_P2
2021/12/29 00:00:58;;;;;;;9.60;1.63;;;10.30;99.90;;;;;;5032174;28;20442;-88
2021/12/29 00:03:25;;;;;;;4.43;1.67;;;10.30;99.90;;;;;;5030904;28;20445;-86
2021/12/29 00:05:52;;;;;;;9.70;1.77;;;10.30;99.90;;;;;;5035577;28;20935;-87
2021/12/29 00:08:18;;;;;;;5.93;1.87;;;10.30;99.90;;;;;;5021635;28;20468;-87
2021/12/29 00:10:54;;;;;;;4.10;1.60;;;10.30;99.90;;;;;;5025911;28;20516;-88
2021/12/29 00:13:21;;;;;;;3.43;1.40;;;10.30;99.90;;;;;;5026531;28;20449;-87
2021/12/29 00:15:47;;;;;;;4.20;1.40;;;10.30;99.90;;;;;;5030866;28;20449;-87
2021/12/29 00:18:14;;;;;;;3.47;1.40;;;10.30;99.90;;;;;;5027795;28;20501;-87
2021/12/29 00:20:41;;;;;;;4.10;1.27;;;10.30;99.90;;;;;;5030654;28;20470;-88
2021/12/29 00:23:08;;;;;;;4.60;1.63;;;10.30;99.90;;;;;;5030886;28;20506;-87
2021/12/29 00:25:35;;;;;;;6.90;1.50;;;10.30;99.90;;;;;;5029949;28;20887;-87
2021/12/29 00:28:03;;;;;;;2.67;1.30;;;10.30;99.90;;;;;;5026323;28;20441;-86
2021/12/29 00:30:29;;;;;;;2.67;1.40;;;10.30;99.90;;;;;;5036276;28;20469;-87
2021/12/29 00:32:57;;;;;;;2.17;1.03;;;10.30;99.90;;;;;;5036579;28;20446;-88
2021/12/29 00:35:24;;;;;;;2.07;0.90;;;10.30;99.90;;;;;;5028911;28;20476;-87
2021/12/29 00:37:50;;;;;;;4.10;1.50;;;10.30;99.90;;;;;;5029512;28;20485;-87
2021/12/29 00:40:17;;;;;;;3.30;1.30;;;10.30;99.90;;;;;;5026754;28;20468;-88
2021/12/29 00:42:44;;;;;;;2.97;1.10;;;10.30;99.90;;;;;;5033117;28;20441;-86
2021/12/29 00:45:12;;;;;;;4.20;1.30;;;10.30;99.90;;;;;;5039034;28;20442;-86
2021/12/29 00:47:39;;;;;;;2.60;1.23;;;10.30;99.90;;;;;;5027324;28;20977;-87
2021/12/29 00:50:09;;;;;;;1.97;0.80;;;10.40;99.90;;;;;;5027619;28;20480;-87
2021/12/29 00:52:36;;;;;;;4.50;1.30;;;10.40;99.90;;;;;;5037524;28;21197;-88
2021/12/29 00:55:04;;;;;;;3.10;1.10;;;10.40;99.90;;;;;;5032053;28;20451;-88
2021/12/29 00:57:31;;;;;;;1.00;0.80;;;10.40;99.90;;;;;;5026667;28;20501;-87
2021/12/29 00:59:59;;;;;;;3.00;0.93;;;10.40;99.90;;;;;;5026992;28;20465;-88
2021/12/29 01:02:28;;;;;;;2.07;1.07;;;10.40;99.90;;;;;;5036872;28;20432;-87
2021/12/29 01:04:54;;;;;;;5.83;1.17;;;10.40;99.90;;;;;;5027506;28;20442;-87
2021/12/29 01:07:21;;;;;;;3.63;1.30;;;10.30;99.90;;;;;;5025976;28;20465;-87
2021/12/29 01:09:48;;;;;;;1.47;0.80;;;10.30;99.90;;;;;;5026490;28;20958;-87
2021/12/29 01:12:15;;;;;;;3.87;1.07;;;10.20;99.90;;;;;;5026713;28;20899;-88
2021/12/29 01:14:45;;;;;;;2.60;1.00;;;10.20;99.90;;;;;;5025801;28;20458;-87
2021/12/29 01:17:12;;;;;;;3.00;0.83;;;10.20;99.90;;;;;;5033538;28;21867;-87
2021/12/29 01:19:40;;;;;;;2.10;0.80;;;10.20;99.90;;;;;;5029902;28;20492;-87
2021/12/29 01:22:07;;;;;;;1.77;0.80;;;10.20;99.90;;;;;;5028545;28;20449;-88
2021/12/29 01:24:34;;;;;;;1.70;1.10;;;10.20;99.90;;;;;;5040365;28;20469;-86
2021/12/29 01:27:01;;;;;;;2.30;1.07;;;10.20;99.90;;;;;;5036448;28;20435;-87
2021/12/29 01:29:28;;;;;;;3.87;0.80;;;10.20;99.90;;;;;;5027237;28;20524;-88
2021/12/29 01:31:55;;;;;;;2.83;1.07;;;10.20;99.90;;;;;;5026448;28;20450;-87
2021/12/29 01:34:22;;;;;;;2.00;1.20;;;10.20;99.90;;;;;;5029187;28;20976;-87
2021/12/29 01:36:52;;;;;;;1.90;0.70;;;10.20;99.90;;;;;;5026208;28;20847;-87
2021/12/29 01:39:20;;;;;;;5.73;1.10;;;10.20;99.90;;;;;;5025769;28;20482;-87
2021/12/29 01:41:50;;;;;;;1.87;0.73;;;10.20;99.90;;;;;;5042749;28;20465;-86
2021/12/29 01:44:18;;;;;;;1.60;0.83;;;10.10;99.90;;;;;;5037178;28;20505;-88
2021/12/29 01:46:46;;;;;;;2.40;0.90;;;10.20;99.90;;;;;;5028626;28;20838;-88
2021/12/29 01:49:13;;;;;;;2.10;0.70;;;10.20;99.90;;;;;;5034622;28;20484;-87
2021/12/29 01:51:48;;;;;;;2.17;1.20;;;10.20;99.90;;;;;;5027014;28;20438;-87
2021/12/29 01:54:16;;;;;;;4.37;0.77;;;10.20;99.90;;;;;;5038993;28;20448;-87
2021/12/29 01:56:46;;;;;;;4.10;0.70;;;10.20;99.90;;;;;;5029787;28;20548;-88
2021/12/29 01:59:13;;;;;;;2.57;0.83;;;10.20;99.90;;;;;;5027103;28;20714;-86
2021/12/29 02:01:40;;;;;;;1.77;0.70;;;10.20;99.90;;;;;;5032676;28;20465;-86
2021/12/29 02:04:07;;;;;;;0.73;0.50;;;10.20;99.90;;;;;;5026366;28;20457;-86
2021/12/29 02:06:34;;;;;;;1.10;0.60;;;10.20;99.90;;;;;;5023431;28;20448;-86
2021/12/29 02:09:02;;;;;;;1.40;0.90;;;10.20;99.90;;;;;;5044814;28;20458;-85
2021/12/29 02:11:30;;;;;;;1.33;0.73;;;10.20;99.90;;;;;;5044228;28;20426;-86
2021/12/29 02:13:58;;;;;;;1.33;0.40;;;10.20;99.90;;;;;;5040422;28;20450;-86
2021/12/29 02:16:25;;;;;;;1.93;0.83;;;10.20;99.90;;;;;;5027745;28;20454;-86
2021/12/29 02:18:53;;;;;;;3.00;0.57;;;10.20;99.90;;;;;;5039555;28;20477;-85
2021/12/29 02:21:22;;;;;;;1.03;0.70;;;10.20;99.90;;;;;;5042177;28;20505;-86
2021/12/29 02:24:15;;;;;;;1.80;0.70;;;10.20;99.90;;;;;;5035770;28;20923;-86
2021/12/29 02:26:43;;;;;;;2.83;0.50;;;10.20;99.90;;;;;;5024715;28;20458;-86
2021/12/29 02:29:12;;;;;;;1.03;0.77;;;10.30;99.90;;;;;;5033727;28;20488;-87
2021/12/29 02:31:40;;;;;;;3.40;0.60;;;10.30;99.90;;;;;;5026785;28;20434;-87
2021/12/29 02:34:10;;;;;;;1.90;0.87;;;10.30;99.90;;;;;;5026055;28;20442;-87
2021/12/29 02:36:44;;;;;;;2.97;0.50;;;10.30;99.90;;;;;;5029299;28;20454;-87
2021/12/29 02:39:17;;;;;;;2.20;0.60;;;10.30;99.90;;;;;;5024403;28;20469;-87
2021/12/29 02:41:46;;;;;;;1.00;0.60;;;10.30;99.90;;;;;;5024505;28;20464;-87
2021/12/29 02:44:20;;;;;;;0.83;0.60;;;10.30;99.90;;;;;;5025996;28;20529;-86
2021/12/29 02:46:47;;;;;;;1.10;0.80;;;10.30;99.90;;;;;;5024424;28;20448;-86
2021/12/29 02:49:14;;;;;;;0.93;0.50;;;10.30;99.90;;;;;;5026378;28;20530;-86
2021/12/29 02:51:42;;;;;;;1.10;0.73;;;10.40;99.90;;;;;;5025858;28;20449;-87
2021/12/29 02:54:09;;;;;;;1.17;0.90;;;10.40;99.90;;;;;;5027372;28;20441;-86
2021/12/29 02:56:36;;;;;;;1.00;0.57;;;10.40;99.90;;;;;;5026003;28;20460;-86
2021/12/29 02:59:07;;;;;;;0.80;0.50;;;10.40;99.90;;;;;;5027390;28;20480;-86
2021/12/29 03:01:33;;;;;;;1.00;0.60;;;10.50;99.90;;;;;;5029516;28;20451;-86
2021/12/29 03:04:05;;;;;;;2.97;0.70;;;10.50;99.90;;;;;;5023236;28;20442;-86
2021/12/29 03:06:32;;;;;;;0.97;0.70;;;10.40;99.90;;;;;;5021755;28;20466;-87
2021/12/29 03:09:01;;;;;;;1.97;0.80;;;10.50;99.90;;;;;;5039703;28;21178;-86
2021/12/29 03:11:28;;;;;;;1.57;1.33;;;10.50;99.90;;;;;;5032751;28;20512;-86
2021/12/29 03:13:55;;;;;;;1.43;0.67;;;10.50;99.90;;;;;;5024636;28;20434;-86
2021/12/29 03:16:21;;;;;;;0.70;0.50;;;10.60;99.90;;;;;;5035562;28;20438;-85
2021/12/29 03:18:48;;;;;;;1.73;0.60;;;10.50;99.90;;;;;;5026124;28;20478;-87
2021/12/29 03:21:15;;;;;;;1.00;0.50;;;10.50;99.90;;;;;;5024496;28;20442;-86
2021/12/29 03:23:43;;;;;;;1.67;0.53;;;10.50;99.90;;;;;;5024264;28;20473;-86
2021/12/29 03:26:11;;;;;;;3.17;0.93;;;10.50;99.90;;;;;;5022684;28;21003;-87
2021/12/29 03:28:39;;;;;;;1.80;0.70;;;10.50;99.90;;;;;;5032188;28;20464;-86
2021/12/29 03:31:10;;;;;;;0.70;0.50;;;10.60;99.90;;;;;;5025164;28;21080;-87
2021/12/29 03:33:37;;;;;;;2.90;0.70;;;10.60;99.90;;;;;;5042013;28;20428;-86
2021/12/29 03:36:05;;;;;;;1.70;0.60;;;10.60;99.90;;;;;;5042056;28;20442;-87
2021/12/29 03:38:37;;;;;;;1.37;0.60;;;10.60;99.90;;;;;;5031943;28;20484;-85
2021/12/29 03:41:06;;;;;;;0.70;0.60;;;10.60;99.90;;;;;;5030209;28;20453;-86
2021/12/29 03:43:35;;;;;;;3.20;0.90;;;10.70;99.90;;;;;;5024256;28;20456;-87
2021/12/29 03:46:03;;;;;;;0.80;0.50;;;10.60;99.90;;;;;;5025274;28;20436;-86
2021/12/29 03:48:31;;;;;;;1.47;0.73;;;10.60;99.90;;;;;;5027450;28;20441;-86
2021/12/29 03:50:59;;;;;;;1.70;0.80;;;10.60;99.90;;;;;;5029783;28;20464;-86
2021/12/29 03:53:26;;;;;;;1.10;0.67;;;10.60;99.90;;;;;;5028283;28;20458;-85
2021/12/29 03:55:54;;;;;;;1.53;0.57;;;10.60;99.90;;;;;;5027181;28;20454;-86
2021/12/29 03:58:22;;;;;;;1.10;0.67;;;10.60;99.90;;;;;;5044794;28;20454;-85
2021/12/29 04:00:53;;;;;;;0.70;0.40;;;10.60;99.90;;;;;;5044685;28;20460;-86
2021/12/29 04:03:19;;;;;;;1.73;0.50;;;10.60;99.90;;;;;;5025601;28;20499;-86
2021/12/29 04:05:46;;;;;;;1.03;0.43;;;10.60;99.90;;;;;;5027899;28;20437;-87
2021/12/29 04:08:13;;;;;;;1.63;0.40;;;10.60;99.90;;;;;;5027707;28;20503;-86
2021/12/29 04:10:40;;;;;;;1.03;0.50;;;10.50;99.90;;;;;;5027092;28;20465;-87
2021/12/29 04:13:07;;;;;;;1.07;0.60;;;10.60;99.90;;;;;;5027777;28;20453;-86
2021/12/29 04:15:34;;;;;;;1.80;0.73;;;10.50;99.90;;;;;;5027354;28;20450;-86
2021/12/29 04:18:04;;;;;;;0.70;0.50;;;10.40;99.90;;;;;;5025869;28;20442;-85
2021/12/29 04:23:19;;;;;;;0.70;0.40;;;10.20;99.90;;;;;;5042124;28;20483;-85
2021/12/29 04:25:52;;;;;;;1.27;0.50;;;10.10;99.90;;;;;;5039109;28;20434;-86
2021/12/29 04:28:22;;;;;;;1.37;0.50;;;10.00;99.90;;;;;;5028034;28;20499;-86
2021/12/29 04:30:51;;;;;;;0.80;0.60;;;10.00;99.90;;;;;;5040391;28;20458;-86
2021/12/29 04:33:20;;;;;;;2.03;0.70;;;10.00;99.90;;;;;;5026393;28;20499;-87
2021/12/29 04:35:47;;;;;;;0.70;0.40;;;10.00;99.90;;;;;;5027647;28;20448;-86
2021/12/29 04:38:15;;;;;;;1.00;0.50;;;10.00;99.90;;;;;;5027204;28;20454;-86
2021/12/29 04:40:42;;;;;;;0.97;0.47;;;9.90;99.90;;;;;;5027475;28;20469;-86
2021/12/29 04:43:09;;;;;;;1.37;0.50;;;9.90;99.90;;;;;;5024891;28;20448;-86
2021/12/29 04:45:36;;;;;;;1.00;0.43;;;9.80;99.90;;;;;;5026297;28;20445;-86
2021/12/29 04:48:10;;;;;;;0.80;0.70;;;9.80;99.90;;;;;;5027046;28;20434;-86
2021/12/29 04:50:39;;;;;;;0.77;0.43;;;9.70;99.90;;;;;;5037475;28;20457;-86
2021/12/29 04:53:08;;;;;;;0.60;0.40;;;9.70;99.90;;;;;;5045507;28;20501;-86
2021/12/29 04:55:36;;;;;;;0.60;0.40;;;9.70;99.90;;;;;;5037771;28;20439;-85
2021/12/29 04:58:03;;;;;;;1.27;0.53;;;9.60;99.90;;;;;;5048533;28;20434;-86
2021/12/29 05:00:32;;;;;;;1.27;0.80;;;9.60;99.90;;;;;;5043649;28;20482;-86
2021/12/29 05:03:00;;;;;;;1.10;0.50;;;9.60;99.90;;;;;;5031023;28;20449;-86
2021/12/29 05:05:40;;;;;;;1.53;0.60;;;9.60;99.90;;;;;;5031215;28;20455;-87
2021/12/29 05:08:26;;;;;;;2.87;0.93;;;9.50;99.90;;;;;;5026419;28;20470;-87
2021/12/29 05:10:55;;;;;;;1.93;0.80;;;9.50;99.90;;;;;;5030646;28;20453;-87
2021/12/29 05:13:22;;;;;;;2.00;0.73;;;9.50;99.90;;;;;;5028329;28;20457;-86
2021/12/29 05:15:48;;;;;;;1.17;1.00;;;9.50;99.90;;;;;;5033190;28;21106;-84
2021/12/29 05:18:15;;;;;;;1.20;0.80;;;9.50;99.90;;;;;;5025625;28;20446;-86
2021/12/29 05:20:42;;;;;;;1.13;0.70;;;9.60;99.90;;;;;;5026663;28;20520;-85
2021/12/29 05:23:10;;;;;;;0.70;0.53;;;9.50;99.90;;;;;;5026221;28;20687;-85
2021/12/29 05:25:37;;;;;;;1.50;0.60;;;9.50;99.90;;;;;;5025313;28;20450;-86
2021/12/29 05:28:04;;;;;;;0.80;0.40;;;9.50;99.90;;;;;;5024473;28;20484;-85
2021/12/29 05:30:31;;;;;;;1.10;0.60;;;9.50;99.90;;;;;;5042186;28;20457;-84
2021/12/29 05:32:58;;;;;;;1.73;0.70;;;9.40;99.90;;;;;;5048902;28;20449;-86
2021/12/29 05:35:25;;;;;;;1.80;0.73;;;9.40;99.90;;;;;;5027831;28;20446;-85
2021/12/29 05:37:51;;;;;;;1.13;0.80;;;9.40;99.90;;;;;;5027384;28;20445;-85
2021/12/29 05:40:20;;;;;;;1.83;0.63;;;9.30;99.90;;;;;;5027601;28;20940;-85
2021/12/29 05:42:46;;;;;;;1.17;0.60;;;9.30;99.90;;;;;;5030306;28;20453;-85
2021/12/29 05:45:14;;;;;;;0.80;0.80;;;9.30;99.90;;;;;;5041773;28;20461;-85
2021/12/29 05:47:42;;;;;;;1.40;0.83;;;9.30;99.90;;;;;;5039094;28;20446;-85
2021/12/29 05:50:12;;;;;;;1.30;0.60;;;9.30;99.90;;;;;;5034742;23;21099;-91
2021/12/29 05:52:39;;;;;;;1.67;0.93;;;9.30;99.90;;;;;;5018281;28;20541;-91
2021/12/29 05:55:08;;;;;;;1.13;0.80;;;9.30;99.90;;;;;;5017519;28;20454;-92
2021/12/29 05:57:36;;;;;;;2.27;0.97;;;9.30;99.90;;;;;;5016525;28;20896;-91
2021/12/29 06:00:04;;;;;;;3.03;0.90;;;9.30;99.90;;;;;;5020346;28;20502;-91
2021/12/29 06:02:31;;;;;;;3.03;1.03;;;9.30;99.90;;;;;;5024764;28;20538;-92
2021/12/29 06:04:58;;;;;;;2.77;1.03;;;9.30;99.90;;;;;;5037246;28;20438;-92
2021/12/29 06:07:25;;;;;;;3.53;1.67;;;9.30;99.90;;;;;;5029816;28;20446;-92
2021/12/29 06:09:52;;;;;;;2.20;1.60;;;9.30;99.90;;;;;;5027155;28;20462;-90
2021/12/29 06:12:19;;;;;;;2.63;1.10;;;9.30;99.90;;;;;;5036176;28;20453;-91
2021/12/29 06:14:47;;;;;;;2.07;0.90;;;9.30;99.90;;;;;;5037592;28;20437;-92
2021/12/29 06:17:14;;;;;;;3.63;1.87;;;9.30;99.90;;;;;;5036880;28;20438;-91
2021/12/29 06:19:41;;;;;;;2.70;1.10;;;9.30;99.90;;;;;;5023615;28;20482;-92
2021/12/29 06:22:10;;;;;;;1.30;0.87;;;9.30;99.90;;;;;;5020537;28;20514;-91
2021/12/29 06:24:38;;;;;;;3.53;1.30;;;9.30;99.90;;;;;;5018928;28;20454;-91
2021/12/29 06:27:06;;;;;;;7.90;1.50;;;9.30;99.90;;;;;;5024453;28;20461;-91
2021/12/29 06:29:33;;;;;;;3.77;1.70;;;9.30;99.90;;;;;;5026627;28;20562;-91
2021/12/29 06:32:01;;;;;;;3.23;1.63;;;9.30;99.90;;;;;;5020634;28;20447;-91
2021/12/29 06:34:29;;;;;;;2.20;1.20;;;9.30;99.90;;;;;;5027453;28;20481;-92
2021/12/29 06:36:56;;;;;;;3.33;1.30;;;9.30;99.90;;;;;;5026931;28;20446;-91
2021/12/29 06:39:23;;;;;;;6.87;1.93;;;9.20;99.90;;;;;;5024488;28;20477;-92
2021/12/29 06:41:50;;;;;;;3.03;1.67;;;9.20;99.90;;;;;;5028555;28;20549;-91
2021/12/29 06:44:17;;;;;;;5.13;1.70;;;9.20;99.90;;;;;;5018646;28;20450;-92
2021/12/29 06:46:44;;;;;;;2.03;1.00;;;9.30;99.90;;;;;;5017627;28;20469;-92
2021/12/29 06:49:12;;;;;;;3.77;1.37;;;9.30;99.90;;;;;;5034677;28;20464;-92
2021/12/29 06:51:39;;;;;;;5.93;2.00;;;9.30;99.90;;;;;;5024633;28;20458;-91
2021/12/29 06:54:06;;;;;;;2.53;2.30;;;9.30;99.90;;;;;;5018236;28;20454;-92
2021/12/29 06:56:33;;;;;;;3.73;1.53;;;9.20;99.90;;;;;;5016716;28;20525;-92
2021/12/29 06:59:00;;;;;;;2.50;1.50;;;9.20;99.90;;;;;;5019770;28;20493;-92
2021/12/29 07:01:27;;;;;;;2.20;1.13;;;9.20;99.90;;;;;;5038236;28;20494;-93
2021/12/29 07:03:54;;;;;;;4.07;1.23;;;9.20;99.90;;;;;;5031891;28;20435;-91
2021/12/29 07:06:22;;;;;;;2.17;1.30;;;9.10;99.90;;;;;;5027490;28;20466;-93
2021/12/29 07:08:49;;;;;;;3.27;1.37;;;9.10;99.90;;;;;;5018486;28;20902;-91
2021/12/29 07:11:16;;;;;;;1.60;1.10;;;9.10;99.90;;;;;;5019183;28;20542;-92
2021/12/29 07:13:44;;;;;;;3.73;1.73;;;9.20;99.90;;;;;;5019000;28;20846;-91
2021/12/29 07:16:12;;;;;;;2.87;1.40;;;9.30;99.90;;;;;;5017062;28;20465;-91
2021/12/29 07:18:39;;;;;;;2.03;0.83;;;9.30;99.90;;;;;;5016401;28;20453;-92
2021/12/29 07:21:06;;;;;;;4.70;1.60;;;9.30;99.90;;;;;;5016448;28;20486;-92
2021/12/29 07:23:34;;;;;;;2.40;1.17;;;9.30;99.90;;;;;;5021518;28;20477;-92
2021/12/29 07:26:01;;;;;;;2.90;1.33;;;9.30;99.90;;;;;;5021015;28;20977;-92
2021/12/29 07:28:28;;;;;;;4.27;2.20;;;9.30;99.90;;;;;;5020567;28;20565;-91
2021/12/29 07:30:54;;;;;;;2.90;1.40;;;9.30;99.90;;;;;;5031787;28;20705;-92
2021/12/29 07:33:21;;;;;;;5.93;2.50;;;9.40;99.90;;;;;;5034260;28;20450;-92
2021/12/29 07:35:48;;;;;;;3.10;1.30;;;9.40;99.90;;;;;;5023621;28;20458;-92
2021/12/29 07:38:15;;;;;;;2.80;1.20;;;9.40;99.90;;;;;;5032278;28;20546;-91
2021/12/29 07:40:44;;;;;;;4.23;1.37;;;9.40;99.90;;;;;;5022650;28;20679;-92
2021/12/29 07:43:12;;;;;;;2.50;1.20;;;9.40;99.90;;;;;;5023045;28;20464;-91
2021/12/29 07:45:42;;;;;;;4.77;1.03;;;9.40;99.90;;;;;;5027332;28;20965;-92
2021/12/29 07:48:09;;;;;;;5.13;1.10;;;9.40;99.90;;;;;;5022433;28;20452;-92
2021/12/29 07:50:38;;;;;;;3.87;1.60;;;9.30;99.90;;;;;;5020732;28;21058;-92
2021/12/29 07:53:06;;;;;;;2.57;1.30;;;9.30;99.90;;;;;;5025676;28;20460;-92
2021/12/29 07:55:33;;;;;;;4.80;1.07;;;9.30;99.90;;;;;;5022484;28;20876;-93
2021/12/29 07:58:02;;;;;;;3.80;1.53;;;9.30;99.90;;;;;;5021939;28;20458;-93
2021/12/29 08:00:29;;;;;;;2.10;1.33;;;9.30;99.90;;;;;;5030660;28;20474;-92
2021/12/29 08:02:56;;;;;;;2.53;0.90;;;9.30;99.90;;;;;;5035335;28;20470;-92
2021/12/29 08:05:23;;;;;;;2.87;1.20;;;9.40;99.90;;;;;;5025731;28;20449;-91
2021/12/29 08:07:50;;;;;;;2.70;0.93;;;9.40;99.90;;;;;;5028367;28;20441;-92
2021/12/29 08:10:17;;;;;;;1.03;0.60;;;9.40;99.90;;;;;;5035500;28;20490;-92
2021/12/29 08:12:44;;;;;;;1.77;1.30;;;9.40;99.90;;;;;;5028636;28;20449;-91
2021/12/29 08:15:12;;;;;;;3.00;2.70;;;9.50;99.90;;;;;;5027753;28;21029;-92
2021/12/29 08:17:39;;;;;;;1.20;0.90;;;9.50;99.90;;;;;;5025896;28;20481;-92
2021/12/29 08:20:09;;;;;;;2.50;1.20;;;9.50;99.90;;;;;;5028071;28;20472;-92
2021/12/29 08:22:36;;;;;;;1.63;1.10;;;9.50;99.90;;;;;;5026900;28;20931;-91
2021/12/29 08:25:04;;;;;;;2.63;1.10;;;9.50;99.90;;;;;;5029200;28;20449;-92
2021/12/29 08:27:30;;;;;;;1.17;1.00;;;9.50;99.90;;;;;;5023009;28;20525;-93
2021/12/29 08:29:57;;;;;;;3.20;1.20;;;9.60;99.90;;;;;;5026152;28;21033;-92
2021/12/29 08:32:26;;;;;;;1.30;0.93;;;9.60;99.90;;;;;;5025150;28;20829;-91
2021/12/29 08:34:53;;;;;;;2.63;1.40;;;9.70;99.90;;;;;;5035877;28;20453;-92
2021/12/29 08:37:20;;;;;;;2.27;1.30;;;9.80;99.90;;;;;;5049485;28;20491;-92
2021/12/29 08:39:47;;;;;;;2.47;1.40;;;9.80;99.90;;;;;;5046063;28;20488;-92
2021/12/29 08:42:13;;;;;;;2.03;0.90;;;9.80;99.90;;;;;;5043709;28;20441;-91
2021/12/29 08:44:40;;;;;;;3.27;1.20;;;9.80;99.90;;;;;;5035903;28;20453;-91
2021/12/29 08:47:08;;;;;;;1.50;1.00;;;9.80;99.90;;;;;;5026398;28;20446;-92
2021/12/29 08:49:37;;;;;;;1.87;1.00;;;9.80;99.90;;;;;;5002839;28;20471;-92
2021/12/29 08:52:05;;;;;;;4.10;1.60;;;9.80;99.90;;;;;;5038809;28;20453;-92
2021/12/29 08:54:32;;;;;;;7.60;1.20;;;9.80;99.90;;;;;;5024206;28;20474;-92
2021/12/29 08:56:59;;;;;;;2.90;1.93;;;9.90;99.90;;;;;;5039490;28;20526;-92
2021/12/29 08:59:26;;;;;;;2.60;1.47;;;9.90;99.90;;;;;;5041840;28;20465;-92
2021/12/29 09:01:53;;;;;;;2.83;1.90;;;9.90;99.90;;;;;;5059071;28;20429;-93
2021/12/29 09:04:20;;;;;;;3.10;2.13;;;9.90;99.90;;;;;;5039043;28;20530;-92
2021/12/29 09:06:48;;;;;;;2.77;1.70;;;9.90;99.90;;;;;;5019938;28;20931;-92
2021/12/29 09:09:15;;;;;;;2.60;2.00;;;9.90;99.90;;;;;;5035031;28;20440;-93
2021/12/29 09:11:43;;;;;;;2.90;1.87;;;9.90;99.90;;;;;;5035885;28;20483;-92
2021/12/29 09:14:10;;;;;;;3.83;1.60;;;10.00;99.90;;;;;;5024474;28;20517;-93
2021/12/29 09:16:37;;;;;;;2.63;1.93;;;10.00;99.90;;;;;;5020331;28;20461;-92
2021/12/29 09:19:11;;;;;;;4.80;2.17;;;10.00;99.90;;;;;;5021316;28;20953;-93
2021/12/29 09:21:38;;;;;;;4.37;2.80;;;10.00;99.90;;;;;;5025720;28;20453;-92
2021/12/29 09:24:07;;;;;;;3.70;1.40;;;10.00;99.90;;;;;;5038977;28;20427;-89
2021/12/29 09:54:59;;;;;;;;;;;;;;;;;;;;;
2021/12/29 10:38:15;;;;;;;3.63;1.80;;;11.30;99.90;;;;;;4665759;23;20778;-91
2021/12/29 10:40:42;;;;;;;4.23;1.83;;;11.30;99.90;;;;;;4996737;28;20495;-83
2021/12/29 10:43:09;;;;;;;2.43;1.20;;;11.40;99.90;;;;;;4983422;28;20463;-83
2021/12/29 10:45:37;;;;;;;1.83;1.10;;;11.40;99.90;;;;;;4984113;28;20444;-82
2021/12/29 10:48:18;;;;;;;4.17;1.40;;;11.40;99.90;;;;;;4988654;28;20457;-83
2021/12/29 10:50:56;;;;;;;2.10;1.40;;;11.40;99.90;;;;;;5011698;28;20468;-83
2021/12/29 10:53:24;;;;;;;2.70;1.50;;;11.50;99.90;;;;;;4996682;28;20451;-83
2021/12/29 10:55:52;;;;;;;3.30;1.50;;;11.50;99.90;;;;;;5011597;28;20504;-83
2021/12/29 10:58:22;;;;;;;4.10;1.60;;;11.50;99.90;;;;;;4997645;28;20517;-84
2021/12/29 11:00:56;;;;;;;1.80;1.53;;;11.50;99.90;;;;;;4995250;28;20487;-87
2021/12/29 11:03:25;;;;;;;2.13;1.40;;;11.50;99.90;;;;;;4980336;28;20447;-87
2021/12/29 11:05:58;;;;;;;3.10;1.70;;;11.40;99.90;;;;;;4994804;28;20459;-88
2021/12/29 11:08:28;;;;;;;3.40;1.20;;;11.30;99.90;;;;;;5002655;28;20533;-90
2021/12/29 11:11:02;;;;;;;6.63;1.40;;;11.20;99.90;;;;;;5008096;28;20469;-88
2021/12/29 11:13:31;;;;;;;4.43;1.30;;;11.30;99.90;;;;;;4977952;28;20456;-87
2021/12/29 11:15:59;;;;;;;1.67;1.33;;;11.40;99.90;;;;;;4979109;28;20726;-88
2021/12/29 11:18:26;;;;;;;2.07;1.40;;;11.30;99.90;;;;;;4997370;28;20501;-87
2021/12/29 11:20:54;;;;;;;3.33;1.57;;;11.20;99.90;;;;;;4980333;28;20486;-88
2021/12/29 11:23:22;;;;;;;4.67;1.40;;;11.20;99.90;;;;;;4984988;28;20474;-89
2021/12/29 11:25:52;;;;;;;3.43;1.97;;;11.20;99.90;;;;;;4974916;28;20475;-89
2021/12/29 11:28:27;;;;;;;4.33;1.80;;;11.20;99.90;;;;;;4983154;28;20452;-88
2021/12/29 11:30:56;;;;;;;3.40;1.70;;;11.30;99.90;;;;;;4974900;28;20467;-88
2021/12/29 11:33:24;;;;;;;3.43;1.37;;;11.20;99.90;;;;;;4982831;28;20456;-88
2021/12/29 11:35:53;;;;;;;2.37;1.67;;;11.30;99.90;;;;;;4976676;28;20474;-87
2021/12/29 11:38:21;;;;;;;2.60;1.20;;;11.30;99.90;;;;;;4980621;28;20540;-88
2021/12/29 11:40:53;;;;;;;3.83;1.10;;;11.40;99.90;;;;;;4994638;28;20482;-88
2021/12/29 11:43:21;;;;;;;3.50;1.50;;;11.50;99.90;;;;;;4991568;28;20427;-88
2021/12/29 11:45:50;;;;;;;4.27;1.40;;;11.40;99.90;;;;;;4982484;28;20448;-88
2021/12/29 11:48:20;;;;;;;3.27;1.70;;;11.40;99.90;;;;;;4995963;28;20457;-88
2021/12/29 11:50:49;;;;;;;3.60;1.60;;;11.30;99.90;;;;;;4982118;28;20506;-88
2021/12/29 11:53:27;;;;;;;3.27;1.87;;;11.30;99.90;;;;;;4991811;28;20440;-88
2021/12/29 11:56:00;;;;;;;1.93;1.00;;;11.20;99.90;;;;;;4978993;28;20464;-89
2021/12/29 11:58:29;;;;;;;2.07;1.40;;;11.30;99.90;;;;;;5011662;28;20466;-90
2021/12/29 12:01:06;;;;;;;5.23;1.67;;;11.30;99.90;;;;;;5011404;28;20498;-89
2021/12/29 12:03:45;;;;;;;1.60;0.90;;;11.40;99.90;;;;;;4988860;28;20440;-85
2021/12/29 12:06:23;;;;;;;3.07;1.13;;;11.40;99.90;;;;;;5000834;28;20534;-88
2021/12/29 12:09:00;;;;;;;1.80;1.03;;;11.30;99.90;;;;;;4985887;28;20455;-87
2021/12/29 12:11:29;;;;;;;2.50;1.30;;;11.30;99.90;;;;;;4985718;28;20447;-89
2021/12/29 12:13:56;;;;;;;2.80;1.03;;;11.30;99.90;;;;;;4981533;28;20446;-89
2021/12/29 12:16:26;;;;;;;4.63;1.30;;;11.50;99.90;;;;;;4997430;28;20447;-90
2021/12/29 12:18:54;;;;;;;1.20;0.97;;;11.60;99.90;;;;;;4981135;28;20448;-88
2021/12/29 12:21:29;;;;;;;2.00;1.30;;;11.70;99.90;;;;;;4979794;28;20488;-88
2021/12/29 12:24:10;;;;;;;3.40;1.80;;;11.80;99.90;;;;;;4993327;28;20544;-88
2021/12/29 12:26:53;;;;;;;5.50;3.20;;;11.80;99.90;;;;;;4967327;28;20486;-88
2021/12/29 12:29:21;;;;;;;3.73;1.53;;;11.80;99.90;;;;;;4986233;28;20477;-91
2021/12/29 12:32:01;;;;;;;3.33;1.50;;;11.80;99.90;;;;;;4999278;28;20465;-90
2021/12/29 12:34:27;;;;;;;2.53;1.50;;;11.80;99.90;;;;;;4998583;28;20445;-91
2021/12/29 12:36:54;;;;;;;3.37;1.60;;;11.80;99.90;;;;;;4995704;28;20457;-90
2021/12/29 12:39:21;;;;;;;4.30;1.47;;;11.80;99.90;;;;;;4995178;28;20871;-90
2021/12/29 12:41:53;;;;;;;3.47;1.70;;;11.90;99.90;;;;;;4989223;28;20514;-88
2021/12/29 12:44:32;;;;;;;4.30;1.60;;;11.90;99.90;;;;;;4983456;28;20456;-85
2021/12/29 12:47:10;;;;;;;3.20;1.30;;;12.00;99.90;;;;;;4971194;28;20448;-88
2021/12/29 12:49:45;;;;;;;9.17;1.83;;;12.00;99.90;;;;;;4998403;28;20475;-88
2021/12/29 12:52:13;;;;;;;3.13;1.40;;;11.90;99.90;;;;;;4985577;28;20470;-86
2021/12/29 12:54:46;;;;;;;8.00;1.80;;;11.90;99.90;;;;;;4982003;28;20444;-88
2021/12/29 12:57:25;;;;;;;6.10;1.70;;;11.90;99.90;;;;;;4987186;28;20532;-89
2021/12/29 13:00:04;;;;;;;7.10;2.30;;;11.90;99.90;;;;;;4970143;28;21008;-89
2021/12/29 13:02:37;;;;;;;3.10;1.87;;;12.00;99.90;;;;;;4981300;28;20981;-87
2021/12/29 13:05:08;;;;;;;5.37;1.93;;;11.90;99.90;;;;;;4993781;28;20461;-90
2021/12/29 13:07:36;;;;;;;9.27;2.43;;;12.00;99.90;;;;;;4990279;28;20459;-88
2021/12/29 13:10:05;;;;;;;7.03;2.40;;;11.90;99.90;;;;;;4984515;28;20565;-89
2021/12/29 13:12:36;;;;;;;7.43;2.70;;;11.80;99.90;;;;;;4999542;28;20940;-86
2021/12/29 13:15:06;;;;;;;5.27;2.03;;;11.80;99.90;;;;;;4979916;28;20543;-90
2021/12/29 13:17:33;;;;;;;5.93;2.23;;;11.80;99.90;;;;;;4991413;28;20511;-90
2021/12/29 13:20:01;;;;;;;10.30;2.50;;;11.80;99.90;;;;;;4986256;28;20447;-87
2021/12/29 13:22:29;;;;;;;9.83;2.93;;;11.90;99.90;;;;;;5019281;28;20467;-86
2021/12/29 13:25:09;;;;;;;6.23;2.77;;;11.90;99.90;;;;;;4992987;28;20457;-87
2021/12/29 13:27:39;;;;;;;6.07;2.63;;;11.90;99.90;;;;;;5016098;28;20443;-87
2021/12/29 13:30:12;;;;;;;8.50;2.43;;;11.80;99.90;;;;;;4973379;28;20478;-87
2021/12/29 13:32:50;;;;;;;9.63;2.53;;;11.80;99.90;;;;;;5002401;28;20459;-89
2021/12/29 13:35:21;;;;;;;4.77;1.57;;;11.80;99.90;;;;;;4970408;28;20455;-86
2021/12/29 13:37:48;;;;;;;2.70;1.50;;;11.80;99.90;;;;;;4996454;28;20460;-89
2021/12/29 13:40:17;;;;;;;10.03;2.67;;;11.70;99.90;;;;;;4980700;28;20515;-90
2021/12/29 13:42:46;;;;;;;5.27;2.27;;;11.80;99.90;;;;;;4983294;28;20484;-91
2021/12/29 13:45:24;;;;;;;3.80;1.70;;;11.70;99.90;;;;;;4970568;28;20448;-91
2021/12/29 13:47:52;;;;;;;4.97;1.87;;;11.70;99.90;;;;;;4997832;28;20457;-91
2021/12/29 13:50:19;;;;;;;5.53;2.10;;;11.70;99.90;;;;;;4977926;28;20463;-90
2021/12/29 13:53:05;;;;;;;3.13;2.30;;;11.70;99.90;;;;;;4977986;28;20448;-89
2021/12/29 13:55:35;;;;;;;4.20;1.70;;;11.70;99.90;;;;;;4974191;28;20485;-90
2021/12/29 13:58:05;;;;;;;5.03;2.03;;;11.70;99.90;;;;;;4978798;28;20539;-90
2021/12/29 14:00:33;;;;;;;2.30;1.90;;;11.70;99.90;;;;;;4983277;28;20537;-91
2021/12/29 14:03:00;;;;;;;3.50;1.93;;;11.60;99.90;;;;;;4990551;28;20566;-88
2021/12/29 14:05:41;;;;;;;3.20;2.27;;;11.50;99.90;;;;;;4977773;28;21110;-88
2021/12/29 14:08:09;;;;;;;4.50;2.53;;;11.50;99.90;;;;;;5019901;23;20491;-86
2021/12/29 14:10:38;;;;;;;9.20;2.10;;;11.60;99.90;;;;;;4997868;28;20478;-86